createdAt,value
2018-03-16T00:00:18.031Z,7.98
2018-03-16T00:01:18.027Z,7.85
2018-03-16T00:02:18.022Z,7.88
2018-03-16T00:03:18.020Z,7.90
2018-03-16T00:04:18.016Z,8.01
2018-03-16T00:05:18.014Z,7.93
2018-03-16T00:06:18.007Z,7.99
2018-03-16T00:07:18.003Z,7.90
2018-03-16T00:08:18.001Z,7.90
2018-03-16T00:09:17.996Z,7.87
2018-03-16T00:10:17.991Z,7.84
2018-03-16T00:11:17.989Z,7.87
2018-03-16T00:12:17.984Z,7.88
2018-03-16T00:13:17.984Z,7.93
2018-03-16T00:14:17.976Z,7.91
2018-03-16T00:15:17.972Z,7.88
2018-03-16T00:16:17.969Z,7.85
2018-03-16T00:17:17.964Z,7.87
2018-03-16T00:18:17.962Z,7.81
2018-03-16T00:19:17.957Z,7.84
2018-03-16T00:20:17.951Z,7.83
2018-03-16T00:21:17.949Z,7.72
2018-03-16T00:22:17.945Z,7.67
2018-03-16T00:23:17.941Z,7.74
2018-03-16T00:24:17.936Z,7.75
2018-03-16T00:25:17.933Z,7.61
2018-03-16T00:26:17.928Z,7.64
2018-03-16T00:27:17.925Z,7.74
2018-03-16T00:28:17.921Z,7.64
2018-03-16T00:29:17.917Z,7.56
2018-03-16T00:30:17.912Z,7.59
2018-03-16T00:31:17.909Z,7.56
2018-03-16T00:32:17.906Z,7.58
2018-03-16T00:33:17.901Z,7.53
2018-03-16T00:34:17.897Z,7.53
2018-03-16T00:35:17.892Z,7.56
2018-03-16T00:36:17.887Z,7.55
2018-03-16T00:37:17.884Z,7.50
2018-03-16T00:38:17.879Z,7.47
2018-03-16T00:39:17.875Z,7.46
2018-03-16T00:40:17.871Z,7.37
2018-03-16T00:41:17.867Z,7.43
2018-03-16T00:42:17.864Z,7.33
2018-03-16T00:43:17.861Z,7.28
2018-03-16T00:44:17.855Z,7.25
2018-03-16T00:45:17.851Z,7.28
2018-03-16T00:46:17.845Z,7.21
2018-03-16T00:47:17.841Z,7.32
2018-03-16T00:48:17.837Z,7.21
2018-03-16T00:49:17.835Z,7.22
2018-03-16T00:50:17.828Z,7.21
2018-03-16T00:51:17.827Z,7.23
2018-03-16T00:52:17.820Z,7.22
2018-03-16T00:53:17.817Z,7.14
2018-03-16T00:54:17.813Z,7.19
2018-03-16T00:55:17.808Z,7.14
2018-03-16T00:56:17.806Z,7.19
2018-03-16T00:57:17.799Z,7.18
2018-03-16T00:58:17.795Z,7.01
2018-03-16T00:59:17.790Z,7.08
2018-03-16T01:00:17.787Z,7.08
2018-03-16T01:01:17.784Z,7.05
2018-03-16T01:02:17.780Z,7.07
2018-03-16T01:03:17.775Z,7.01
2018-03-16T01:04:17.771Z,7.08
2018-03-16T01:05:17.765Z,7.14
2018-03-16T01:06:17.760Z,7.03
2018-03-16T01:07:17.760Z,7.10
2018-03-16T01:08:17.752Z,7.05
2018-03-16T01:09:17.748Z,7.10
2018-03-16T01:10:17.744Z,7.03
2018-03-16T01:11:17.738Z,7.08
2018-03-16T01:12:17.739Z,7.04
2018-03-16T01:13:17.730Z,7.00
2018-03-16T01:14:17.725Z,7.04
2018-03-16T01:15:17.722Z,7.04
2018-03-16T01:16:17.717Z,6.97
2018-03-16T01:17:17.713Z,6.96
2018-03-16T01:19:17.716Z,6.95
2018-03-16T01:20:17.710Z,6.89
2018-03-16T01:21:17.709Z,6.85
2018-03-16T01:22:17.702Z,6.89
2018-03-16T01:23:17.699Z,6.89
2018-03-16T01:24:17.695Z,6.89
2018-03-16T01:25:17.690Z,7.03
2018-03-16T01:26:17.685Z,7.05
2018-03-16T01:27:17.682Z,7.13
2018-03-16T01:28:17.682Z,7.13
2018-03-16T01:29:17.672Z,7.15
2018-03-16T01:30:17.668Z,7.19
2018-03-16T01:31:17.664Z,7.11
2018-03-16T01:32:17.662Z,7.13
2018-03-16T01:33:17.657Z,7.26
2018-03-16T01:34:17.650Z,7.21
2018-03-16T01:35:17.646Z,7.33
2018-03-16T01:36:17.644Z,7.33
2018-03-16T01:37:17.641Z,7.33
2018-03-16T01:38:17.635Z,7.41
2018-03-16T01:39:17.630Z,7.55
2018-03-16T01:40:17.630Z,7.53
2018-03-16T01:41:17.622Z,7.61
2018-03-16T01:42:17.618Z,7.66
2018-03-16T01:43:17.614Z,7.69
2018-03-16T01:44:17.611Z,7.67
2018-03-16T01:45:17.607Z,7.70
2018-03-16T01:46:17.603Z,7.62
2018-03-16T01:47:17.599Z,7.64
2018-03-16T01:48:17.595Z,7.61
2018-03-16T01:49:17.591Z,7.53
2018-03-16T01:50:17.587Z,7.37
2018-03-16T01:51:17.584Z,7.44
2018-03-16T01:52:17.580Z,7.36
2018-03-16T01:53:17.577Z,7.36
2018-03-16T01:54:17.571Z,7.28
2018-03-16T01:55:17.569Z,7.26
2018-03-16T01:56:17.564Z,7.25
2018-03-16T01:57:17.561Z,7.19
2018-03-16T01:58:17.557Z,7.19
2018-03-16T01:59:17.551Z,7.23
2018-03-16T02:00:17.548Z,7.23
2018-03-16T02:01:17.546Z,7.22
2018-03-16T02:02:17.541Z,7.32
2018-03-16T02:03:17.538Z,7.41
2018-03-16T02:04:17.533Z,7.32
2018-03-16T02:05:17.529Z,7.43
2018-03-16T02:06:17.526Z,7.32
2018-03-16T02:07:17.523Z,7.41
2018-03-16T02:08:17.519Z,7.43
2018-03-16T02:09:17.514Z,7.56
2018-03-16T02:10:17.511Z,7.51
2018-03-16T02:11:17.505Z,7.50
2018-03-16T02:12:17.504Z,7.55
2018-03-16T02:13:17.500Z,7.56
2018-03-16T02:14:17.495Z,7.59
2018-03-16T02:15:17.492Z,7.56
2018-03-16T02:16:17.488Z,7.61
2018-03-16T02:17:17.485Z,7.64
2018-03-16T02:18:17.480Z,7.74
2018-03-16T02:19:17.528Z,7.66
2018-03-16T02:20:17.473Z,7.64
2018-03-16T02:21:17.469Z,7.58
2018-03-16T02:22:17.467Z,7.59
2018-03-16T02:23:17.463Z,7.51
2018-03-16T02:24:17.459Z,7.47
2018-03-16T02:25:17.456Z,7.53
2018-03-16T02:26:17.450Z,7.58
2018-03-16T02:27:17.447Z,7.61
2018-03-16T02:28:17.444Z,7.61
2018-03-16T02:29:17.439Z,7.64
2018-03-16T02:30:17.436Z,7.56
2018-03-16T02:31:17.431Z,7.32
2018-03-16T02:32:17.428Z,7.33
2018-03-16T02:33:17.425Z,7.23
2018-03-16T02:34:17.422Z,7.13
2018-03-16T02:35:17.416Z,7.05
2018-03-16T02:36:17.414Z,7.03
2018-03-16T02:37:17.410Z,7.04
2018-03-16T02:38:17.406Z,6.97
2018-03-16T02:39:17.402Z,7.04
2018-03-16T02:40:17.397Z,7.04
2018-03-16T02:41:17.395Z,6.97
2018-03-16T02:42:17.390Z,6.96
2018-03-16T02:43:17.387Z,7.01
2018-03-16T02:44:17.382Z,7.01
2018-03-16T02:45:17.381Z,7.14
2018-03-16T02:46:17.377Z,7.01
2018-03-16T02:47:17.370Z,7.13
2018-03-16T02:48:17.367Z,7.22
2018-03-16T02:49:17.364Z,7.22
2018-03-16T02:50:17.359Z,7.21
2018-03-16T02:51:17.354Z,7.23
2018-03-16T02:52:17.350Z,7.19
2018-03-16T02:53:17.350Z,7.11
2018-03-16T02:54:17.341Z,7.15
2018-03-16T02:55:17.338Z,7.07
2018-03-16T02:56:17.336Z,6.97
2018-03-16T02:57:17.332Z,6.97
2018-03-16T02:58:17.327Z,6.95
2018-03-16T02:59:17.324Z,7.03
2018-03-16T03:00:17.320Z,6.92
2018-03-16T03:01:17.316Z,7.01
2018-03-16T03:02:17.310Z,7.01
2018-03-16T03:03:17.309Z,6.96
2018-03-16T03:04:17.305Z,7.04
2018-03-16T03:05:17.300Z,7.01
2018-03-16T03:06:17.296Z,7.07
2018-03-16T03:07:17.292Z,7.04
2018-03-16T03:08:17.287Z,7.08
2018-03-16T03:09:17.284Z,7.15
2018-03-16T03:10:17.280Z,7.22
2018-03-16T03:11:17.276Z,7.21
2018-03-16T03:12:17.274Z,7.23
2018-03-16T03:13:17.269Z,7.36
2018-03-16T03:14:17.266Z,7.40
2018-03-16T03:15:17.263Z,7.31
2018-03-16T03:16:17.257Z,7.32
2018-03-16T03:17:17.254Z,7.41
2018-03-16T03:18:17.250Z,7.47
2018-03-16T03:19:17.246Z,7.59
2018-03-16T03:20:17.243Z,7.56
2018-03-16T03:21:17.243Z,7.61
2018-03-16T03:22:17.235Z,7.59
2018-03-16T03:23:17.231Z,7.58
2018-03-16T03:24:17.229Z,7.53
2018-03-16T03:25:17.225Z,7.56
2018-03-16T03:26:17.220Z,7.51
2018-03-16T03:27:17.217Z,7.62
2018-03-16T03:28:17.212Z,7.55
2018-03-16T03:29:17.209Z,7.50
2018-03-16T03:30:17.206Z,7.44
2018-03-16T03:31:17.202Z,7.44
2018-03-16T03:32:17.199Z,7.31
2018-03-16T03:33:17.197Z,7.39
2018-03-16T03:34:17.230Z,7.29
2018-03-16T03:35:17.186Z,7.33
2018-03-16T03:36:17.186Z,7.37
2018-03-16T03:37:17.180Z,7.36
2018-03-16T03:38:17.176Z,7.41
2018-03-16T03:39:17.173Z,7.23
2018-03-16T03:40:17.170Z,7.23
2018-03-16T03:41:17.165Z,7.26
2018-03-16T03:42:17.162Z,7.19
2018-03-16T03:43:17.159Z,7.23
2018-03-16T03:44:17.154Z,7.19
2018-03-16T03:45:17.150Z,7.19
2018-03-16T03:46:17.146Z,7.25
2018-03-16T03:47:17.143Z,7.26
2018-03-16T03:48:17.139Z,7.33
2018-03-16T03:49:17.136Z,7.37
2018-03-16T03:50:17.131Z,7.33
2018-03-16T03:51:17.127Z,7.19
2018-03-16T03:52:17.125Z,7.25
2018-03-16T03:53:17.122Z,7.22
2018-03-16T03:54:17.117Z,7.13
2018-03-16T03:55:17.112Z,7.08
2018-03-16T03:56:17.110Z,7.04
2018-03-16T03:57:17.107Z,7.01
2018-03-16T03:58:17.102Z,7.00
2018-03-16T03:59:17.098Z,7.01
2018-03-16T04:00:17.094Z,7.01
2018-03-16T04:01:17.091Z,7.00
2018-03-16T04:02:17.087Z,6.96
2018-03-16T04:03:17.084Z,7.07
2018-03-16T04:04:17.080Z,7.15
2018-03-16T04:05:17.075Z,7.10
2018-03-16T04:06:17.070Z,7.19
2018-03-16T04:07:17.066Z,7.13
2018-03-16T04:08:17.065Z,7.15
2018-03-16T04:09:17.059Z,7.15
2018-03-16T04:10:17.056Z,7.18
2018-03-16T04:11:17.050Z,7.13
2018-03-16T04:12:17.048Z,7.18
2018-03-16T04:13:17.044Z,7.13
2018-03-16T04:14:17.040Z,7.13
2018-03-16T04:15:17.037Z,7.01
2018-03-16T04:16:17.032Z,7.15
2018-03-16T04:17:17.031Z,7.22
2018-03-16T04:18:17.025Z,7.19
2018-03-16T04:19:17.020Z,7.22
2018-03-16T04:20:17.019Z,7.19
2018-03-16T04:21:17.014Z,7.05
2018-03-16T04:22:17.009Z,7.01
2018-03-16T04:23:17.004Z,6.80
2018-03-16T04:24:17.002Z,6.85
2018-03-16T04:25:16.998Z,6.80
2018-03-16T04:26:16.993Z,6.78
2018-03-16T04:27:16.988Z,6.85
2018-03-16T04:28:16.988Z,6.82
2018-03-16T04:29:16.983Z,6.82
2018-03-16T04:30:16.979Z,6.92
2018-03-16T04:31:16.973Z,6.89
2018-03-16T04:32:16.969Z,6.92
2018-03-16T04:33:16.965Z,6.86
2018-03-16T04:34:16.962Z,6.85
2018-03-16T04:35:16.959Z,6.87
2018-03-16T04:36:16.953Z,6.78
2018-03-16T04:37:16.951Z,6.68
2018-03-16T04:38:16.944Z,6.75
2018-03-16T04:39:16.941Z,6.70
2018-03-16T04:40:16.938Z,6.72
2018-03-16T04:41:16.934Z,6.67
2018-03-16T04:42:16.928Z,6.72
2018-03-16T04:43:16.926Z,6.67
2018-03-16T04:44:16.922Z,6.70
2018-03-16T04:45:16.919Z,6.68
2018-03-16T04:46:16.912Z,6.74
2018-03-16T04:47:16.909Z,6.74
2018-03-16T04:48:16.905Z,6.74
2018-03-16T04:49:16.905Z,6.86
2018-03-16T04:50:16.896Z,6.78
2018-03-16T04:51:16.893Z,6.86
2018-03-16T04:52:16.889Z,6.82
2018-03-16T04:53:16.887Z,6.74
2018-03-16T04:54:16.881Z,6.78
2018-03-16T04:55:16.876Z,6.64
2018-03-16T04:56:16.873Z,6.74
2018-03-16T04:57:16.869Z,6.60
2018-03-16T04:58:16.863Z,6.59
2018-03-16T04:59:16.870Z,6.64
2018-03-16T05:00:16.857Z,6.62
2018-03-16T05:01:16.854Z,6.59
2018-03-16T05:02:16.851Z,6.50
2018-03-16T05:03:16.883Z,6.49
2018-03-16T05:04:16.840Z,6.54
2018-03-16T05:05:16.836Z,6.41
2018-03-16T05:06:16.830Z,6.54
2018-03-16T05:07:16.828Z,6.50
2018-03-16T05:08:16.824Z,6.52
2018-03-16T05:09:16.819Z,6.47
2018-03-16T05:10:16.816Z,6.49
2018-03-16T05:11:16.810Z,6.54
2018-03-16T05:12:16.807Z,6.67
2018-03-16T05:13:16.802Z,6.54
2018-03-16T05:14:16.804Z,6.54
2018-03-16T05:15:16.794Z,6.56
2018-03-16T05:16:16.789Z,6.59
2018-03-16T05:17:16.786Z,6.59
2018-03-16T05:18:16.781Z,6.57
2018-03-16T05:19:16.777Z,6.65
2018-03-16T05:20:16.774Z,6.65
2018-03-16T05:21:16.768Z,6.60
2018-03-16T05:22:16.764Z,6.64
2018-03-16T05:23:16.759Z,6.60
2018-03-16T05:24:16.755Z,6.60
2018-03-16T05:25:16.753Z,6.54
2018-03-16T05:26:16.746Z,6.47
2018-03-16T05:27:16.744Z,6.50
2018-03-16T05:28:16.740Z,6.53
2018-03-16T05:29:16.735Z,6.49
2018-03-16T05:30:16.730Z,6.36
2018-03-16T05:31:16.725Z,6.41
2018-03-16T05:32:16.722Z,6.43
2018-03-16T05:33:16.718Z,6.31
2018-03-16T05:34:16.727Z,6.35
2018-03-16T05:35:16.710Z,6.25
2018-03-16T05:36:16.706Z,6.15
2018-03-16T05:37:16.700Z,6.12
2018-03-16T05:38:16.696Z,6.12
2018-03-16T05:39:16.691Z,6.17
2018-03-16T05:40:16.687Z,6.13
2018-03-16T05:41:16.683Z,6.02
2018-03-16T05:42:16.679Z,5.98
2018-03-16T05:43:16.674Z,6.07
2018-03-16T05:44:16.710Z,6.19
2018-03-16T05:45:16.666Z,6.16
2018-03-16T05:46:16.660Z,6.26
2018-03-16T05:47:16.655Z,6.38
2018-03-16T05:48:16.652Z,6.22
2018-03-16T05:49:16.646Z,6.31
2018-03-16T05:50:16.642Z,6.16
2018-03-16T05:51:16.638Z,6.20
2018-03-16T05:52:16.635Z,6.07
2018-03-16T05:53:16.631Z,6.13
2018-03-16T05:54:16.623Z,6.12
2018-03-16T05:55:16.621Z,6.09
2018-03-16T05:56:16.620Z,6.17
2018-03-16T05:57:16.613Z,6.17
2018-03-16T05:58:16.606Z,6.15
2018-03-16T05:59:16.602Z,5.95
2018-03-16T06:00:16.598Z,6.01
2018-03-16T06:01:16.595Z,6.25
2018-03-16T06:02:16.589Z,6.28
2018-03-16T06:03:16.585Z,6.35
2018-03-16T06:04:16.581Z,6.36
2018-03-16T06:05:16.622Z,6.39
2018-03-16T06:06:16.571Z,6.49
2018-03-16T06:07:16.567Z,6.50
2018-03-16T06:08:16.563Z,6.49
2018-03-16T06:09:16.558Z,6.60
2018-03-16T06:10:16.553Z,6.54
2018-03-16T06:11:16.549Z,6.74
2018-03-16T06:12:16.545Z,6.72
2018-03-16T06:13:16.542Z,6.78
2018-03-16T06:14:16.537Z,6.89
2018-03-16T06:15:16.532Z,6.78
2018-03-16T06:16:16.528Z,6.72
2018-03-16T06:17:16.525Z,6.71
2018-03-16T06:18:16.519Z,6.71
2018-03-16T06:19:16.514Z,6.86
2018-03-16T06:20:16.512Z,6.78
2018-03-16T06:21:16.509Z,6.77
2018-03-16T06:22:16.502Z,6.77
2018-03-16T06:23:16.499Z,6.78
2018-03-16T06:24:16.495Z,6.83
2018-03-16T06:25:16.491Z,6.82
2018-03-16T06:26:16.486Z,6.89
2018-03-16T06:27:16.481Z,6.85
2018-03-16T06:28:16.479Z,6.78
2018-03-16T06:29:16.476Z,6.70
2018-03-16T06:30:16.470Z,6.82
2018-03-16T06:31:16.471Z,6.74
2018-03-16T06:32:16.513Z,6.71
2018-03-16T06:33:16.461Z,6.67
2018-03-16T06:34:16.454Z,6.74
2018-03-16T06:35:16.450Z,6.75
2018-03-16T06:36:16.447Z,6.68
2018-03-16T06:37:16.442Z,7.04
2018-03-16T06:38:16.438Z,7.48
2018-03-16T06:39:16.436Z,7.64
2018-03-16T06:40:16.431Z,7.88
2018-03-16T06:41:16.428Z,8.06
2018-03-16T06:42:16.427Z,7.93
2018-03-16T06:43:16.429Z,7.93
2018-03-16T06:44:16.418Z,7.83
2018-03-16T06:45:16.414Z,7.72
2018-03-16T06:46:16.410Z,7.72
2018-03-16T06:47:16.409Z,7.72
2018-03-16T06:48:16.407Z,7.67
2018-03-16T06:49:16.402Z,7.74
2018-03-16T06:50:16.398Z,7.85
2018-03-16T06:51:16.398Z,7.83
2018-03-16T06:52:16.393Z,7.85
2018-03-16T06:53:16.388Z,7.87
2018-03-16T06:54:16.697Z,7.80
2018-03-16T06:55:16.383Z,7.77
2018-03-16T06:56:16.379Z,7.87
2018-03-16T06:57:16.377Z,7.99
2018-03-16T06:58:16.373Z,7.93
2018-03-16T06:59:16.371Z,8.46
2018-03-16T07:00:16.369Z,9.29
2018-03-16T07:01:16.366Z,9.81
2018-03-16T07:02:16.371Z,10.34
2018-03-16T07:03:16.383Z,10.28
2018-03-16T07:04:16.363Z,10.27
2018-03-16T07:05:16.362Z,10.61
2018-03-16T07:06:16.361Z,10.75
2018-03-16T07:07:16.360Z,11.00
2018-03-16T07:08:16.360Z,11.04
2018-03-16T07:09:16.361Z,10.97
2018-03-16T07:10:16.362Z,11.22
2018-03-16T07:11:16.364Z,11.05
2018-03-16T07:12:16.361Z,11.33
2018-03-16T07:13:16.362Z,11.55
2018-03-16T07:14:16.361Z,11.33
2018-03-16T07:15:16.363Z,10.72
2018-03-16T07:16:16.524Z,10.43
2018-03-16T07:17:16.367Z,10.31
2018-03-16T07:18:16.365Z,10.41
2018-03-16T07:19:16.367Z,10.72
2018-03-16T07:20:16.367Z,11.13
2018-03-16T07:21:16.368Z,11.08
2018-03-16T07:22:16.368Z,11.10
2018-03-16T07:23:16.421Z,11.07
2018-03-16T07:24:16.370Z,11.26
2018-03-16T07:25:16.373Z,11.59
2018-03-16T07:26:16.370Z,11.67
2018-03-16T07:27:16.373Z,11.71
2018-03-16T07:28:16.373Z,11.77
2018-03-16T07:29:16.375Z,11.74
2018-03-16T07:30:16.375Z,11.77
2018-03-16T07:31:16.378Z,12.05
2018-03-16T07:32:16.380Z,12.28
2018-03-16T07:33:16.382Z,12.43
2018-03-16T07:34:16.385Z,12.50
2018-03-16T07:35:16.391Z,12.18
2018-03-16T07:36:16.392Z,12.47
2018-03-16T07:37:16.393Z,12.65
2018-03-16T07:38:16.531Z,13.33
2018-03-16T07:39:16.400Z,14.11
2018-03-16T07:40:16.408Z,14.53
2018-03-16T07:41:16.457Z,15.12
2018-03-16T07:42:16.408Z,15.18
2018-03-16T07:43:16.411Z,15.30
2018-03-16T07:44:16.416Z,15.22
2018-03-16T07:45:16.419Z,15.05
2018-03-16T07:46:16.422Z,14.97
2018-03-16T07:47:16.427Z,15.10
2018-03-16T07:48:16.437Z,15.41
2018-03-16T07:49:16.439Z,15.60
2018-03-16T07:50:16.442Z,15.72
2018-03-16T07:51:16.447Z,15.87
2018-03-16T07:52:16.454Z,16.13
2018-03-16T07:53:16.461Z,15.99
2018-03-16T07:54:16.465Z,15.81
2018-03-16T07:55:16.471Z,15.96
2018-03-16T07:56:16.478Z,16.13
2018-03-16T07:57:16.481Z,16.21
2018-03-16T07:58:16.486Z,16.06
2018-03-16T07:59:16.735Z,16.08
2018-03-16T08:00:16.499Z,15.85
2018-03-16T08:01:16.507Z,16.09
2018-03-16T08:02:16.511Z,16.34
2018-03-16T08:03:16.520Z,16.58
2018-03-16T08:04:16.525Z,16.79
2018-03-16T08:05:16.533Z,16.76
2018-03-16T08:06:16.539Z,16.94
2018-03-16T08:07:16.545Z,16.80
2018-03-16T08:08:16.552Z,16.18
2018-03-16T08:09:16.558Z,15.65
2018-03-16T08:10:16.566Z,15.43
2018-03-16T08:11:16.572Z,15.39
2018-03-16T08:12:16.577Z,15.26
2018-03-16T08:13:16.585Z,15.05
2018-03-16T08:14:16.590Z,15.00
2018-03-16T08:15:16.623Z,15.15
2018-03-16T08:16:16.604Z,15.60
2018-03-16T08:17:16.611Z,15.91
2018-03-16T08:18:16.617Z,16.26
2018-03-16T08:19:16.648Z,16.62
2018-03-16T08:20:16.631Z,16.51
2018-03-16T08:21:16.637Z,16.21
2018-03-16T08:22:16.644Z,16.05
2018-03-16T08:23:16.651Z,15.91
2018-03-16T08:24:16.656Z,15.73
2018-03-16T08:25:16.663Z,15.90
2018-03-16T08:26:16.669Z,15.92
2018-03-16T08:27:16.676Z,15.81
2018-03-16T08:28:16.728Z,15.72
2018-03-16T08:29:16.688Z,15.41
2018-03-16T08:30:16.693Z,15.43
2018-03-16T08:31:16.701Z,15.69
2018-03-16T08:32:16.706Z,15.83
2018-03-16T08:33:16.713Z,15.83
2018-03-16T08:34:16.720Z,15.76
2018-03-16T08:35:16.725Z,15.91
2018-03-16T08:36:16.737Z,16.08
2018-03-16T08:37:16.742Z,16.17
2018-03-16T08:38:16.744Z,16.10
2018-03-16T08:39:16.754Z,15.90
2018-03-16T08:40:16.760Z,15.75
2018-03-16T08:41:16.764Z,15.96
2018-03-16T08:42:16.770Z,15.88
2018-03-16T08:43:16.775Z,15.94
2018-03-16T08:44:16.783Z,15.55
2018-03-16T08:45:16.789Z,15.11
2018-03-16T08:46:16.794Z,14.77
2018-03-16T08:47:16.799Z,14.71
2018-03-16T08:48:16.804Z,14.89
2018-03-16T08:49:16.811Z,15.12
2018-03-16T08:50:16.814Z,15.18
2018-03-16T08:51:16.821Z,15.02
2018-03-16T08:52:16.826Z,14.66
2018-03-16T08:53:16.831Z,14.33
2018-03-16T08:54:16.835Z,14.03
2018-03-16T08:55:16.838Z,13.95
2018-03-16T08:56:16.842Z,13.71
2018-03-16T08:57:16.849Z,13.79
2018-03-16T08:58:16.852Z,14.38
2018-03-16T08:59:16.856Z,15.15
2018-03-16T09:00:16.863Z,15.85
2018-03-16T09:01:16.867Z,16.72
2018-03-16T09:02:16.873Z,17.44
2018-03-16T09:03:16.879Z,17.66
2018-03-16T09:04:16.887Z,17.72
2018-03-16T09:05:16.894Z,17.46
2018-03-16T09:06:16.900Z,16.98
2018-03-16T09:07:16.908Z,17.52
2018-03-16T09:08:16.918Z,18.03
2018-03-16T09:09:16.926Z,17.95
2018-03-16T09:10:16.931Z,18.21
2018-03-16T09:11:16.939Z,17.73
2018-03-16T09:12:16.949Z,18.19
2018-03-16T09:13:16.958Z,18.55
2018-03-16T09:14:16.965Z,18.36
2018-03-16T09:15:16.976Z,19.07
2018-03-16T09:16:16.987Z,19.26
2018-03-16T09:17:16.994Z,19.34
2018-03-16T09:18:17.005Z,18.66
2018-03-16T09:19:17.012Z,17.79
2018-03-16T09:20:17.021Z,17.01
2018-03-16T09:21:17.030Z,16.36
2018-03-16T09:22:17.041Z,15.99
2018-03-16T09:23:17.046Z,15.60
2018-03-16T09:24:17.056Z,15.32
2018-03-16T09:25:17.062Z,15.43
2018-03-16T09:26:17.069Z,15.98
2018-03-16T09:27:17.076Z,15.90
2018-03-16T09:28:17.085Z,15.90
2018-03-16T09:29:17.095Z,15.59
2018-03-16T09:30:17.097Z,14.79
2018-03-16T09:31:17.104Z,14.36
2018-03-16T09:32:17.110Z,14.00
2018-03-16T09:33:17.117Z,13.78
2018-03-16T09:34:17.123Z,13.68
2018-03-16T09:35:17.127Z,13.36
2018-03-16T09:36:17.134Z,13.23
2018-03-16T09:37:17.138Z,13.26
2018-03-16T09:38:17.142Z,13.13
2018-03-16T09:39:17.147Z,13.02
2018-03-16T09:40:17.151Z,13.03
2018-03-16T09:41:17.156Z,13.12
2018-03-16T09:42:17.160Z,13.78
2018-03-16T09:43:17.163Z,14.33
2018-03-16T09:44:17.168Z,15.08
2018-03-16T09:45:17.173Z,15.14
2018-03-16T09:46:17.177Z,15.05
2018-03-16T09:47:17.183Z,14.81
2018-03-16T09:48:17.188Z,14.78
2018-03-16T09:49:17.192Z,14.78
2018-03-16T09:50:17.196Z,14.79
2018-03-16T09:51:17.200Z,14.56
2018-03-16T09:52:17.204Z,14.67
2018-03-16T09:53:17.211Z,14.78
2018-03-16T09:54:17.214Z,14.51
2018-03-16T09:55:17.222Z,14.62
2018-03-16T09:56:17.249Z,14.68
2018-03-16T09:57:17.227Z,15.23
2018-03-16T09:58:17.232Z,15.27
2018-03-16T09:59:17.235Z,15.17
2018-03-16T10:00:17.240Z,15.00
2018-03-16T10:01:17.246Z,15.59
2018-03-16T10:02:17.249Z,15.75
2018-03-16T10:03:17.254Z,15.41
2018-03-16T10:04:17.260Z,15.17
2018-03-16T10:05:17.264Z,14.99
2018-03-16T10:06:17.742Z,15.08
2018-03-16T10:07:17.273Z,15.48
2018-03-16T10:08:17.279Z,15.60
2018-03-16T10:09:17.284Z,16.12
2018-03-16T10:10:17.288Z,16.36
2018-03-16T10:11:17.295Z,16.68
2018-03-16T10:12:17.302Z,17.19
2018-03-16T10:13:17.307Z,17.13
2018-03-16T10:14:17.311Z,17.91
2018-03-16T10:15:17.319Z,17.52
2018-03-16T10:16:17.325Z,17.20
2018-03-16T10:17:17.332Z,16.82
2018-03-16T10:18:17.336Z,16.82
2018-03-16T10:19:17.342Z,16.80
2018-03-16T10:20:17.349Z,16.86
2018-03-16T10:21:17.355Z,16.54
2018-03-16T10:22:17.361Z,15.70
2018-03-16T10:23:17.368Z,15.23
2018-03-16T10:24:17.373Z,14.89
2018-03-16T10:25:17.380Z,14.56
2018-03-16T10:26:17.384Z,14.30
2018-03-16T10:27:17.388Z,14.05
2018-03-16T10:28:17.395Z,13.89
2018-03-16T10:29:17.401Z,14.00
2018-03-16T10:30:17.404Z,13.79
2018-03-16T10:31:17.408Z,13.71
2018-03-16T10:32:17.415Z,13.68
2018-03-16T10:33:17.419Z,13.78
2018-03-16T10:34:17.422Z,13.68
2018-03-16T10:35:17.426Z,13.79
2018-03-16T10:36:17.430Z,13.97
2018-03-16T10:37:17.433Z,14.07
2018-03-16T10:38:17.436Z,14.12
2018-03-16T10:39:17.441Z,14.22
2018-03-16T10:40:17.442Z,14.31
2018-03-16T10:41:17.449Z,14.43
2018-03-16T10:42:17.449Z,14.96
2018-03-16T10:43:17.454Z,15.05
2018-03-16T10:44:17.458Z,15.02
2018-03-16T10:45:17.461Z,14.78
2018-03-16T10:46:17.465Z,14.49
2018-03-16T10:47:17.467Z,14.30
2018-03-16T10:48:17.471Z,14.18
2018-03-16T10:49:17.476Z,14.30
2018-03-16T10:50:17.478Z,14.33
2018-03-16T10:51:17.482Z,14.44
2018-03-16T10:52:17.485Z,14.45
2018-03-16T10:53:17.489Z,14.28
2018-03-16T10:54:17.584Z,14.12
2018-03-16T10:55:17.541Z,14.00
2018-03-16T10:56:17.499Z,13.86
2018-03-16T10:57:17.501Z,13.82
2018-03-16T10:58:17.504Z,13.67
2018-03-16T10:59:17.508Z,13.57
2018-03-16T11:00:17.511Z,13.54
2018-03-16T11:01:17.513Z,13.65
2018-03-16T11:02:17.516Z,13.64
2018-03-16T11:03:17.517Z,13.54
2018-03-16T11:04:17.520Z,13.40
2018-03-16T11:05:17.522Z,13.47
2018-03-16T11:06:17.525Z,13.46
2018-03-16T11:07:17.526Z,13.54
2018-03-16T11:08:17.531Z,13.46
2018-03-16T11:09:17.543Z,13.23
2018-03-16T11:10:17.533Z,13.30
2018-03-16T11:11:17.536Z,13.45
2018-03-16T11:12:17.539Z,13.43
2018-03-16T11:13:17.541Z,13.24
2018-03-16T11:14:17.544Z,13.30
2018-03-16T11:15:17.543Z,13.16
2018-03-16T11:16:17.545Z,13.02
2018-03-16T11:17:17.572Z,12.80
2018-03-16T11:18:17.549Z,12.75
2018-03-16T11:19:17.550Z,12.68
2018-03-16T11:20:17.552Z,12.65
2018-03-16T11:21:17.555Z,12.51
2018-03-16T11:22:17.557Z,12.36
2018-03-16T11:23:17.556Z,12.30
2018-03-16T11:24:17.557Z,12.32
2018-03-16T11:25:17.558Z,12.30
2018-03-16T11:26:17.560Z,12.37
2018-03-16T11:27:17.561Z,12.37
2018-03-16T11:28:17.562Z,12.37
2018-03-16T11:29:17.562Z,12.39
2018-03-16T11:30:17.562Z,12.36
2018-03-16T11:31:17.564Z,12.43
2018-03-16T11:32:17.565Z,12.55
2018-03-16T11:33:17.565Z,12.66
2018-03-16T11:34:17.571Z,12.66
2018-03-16T11:35:17.570Z,12.78
2018-03-16T11:36:17.567Z,12.65
2018-03-16T11:37:17.569Z,12.99
2018-03-16T11:38:17.568Z,12.98
2018-03-16T11:39:17.572Z,13.02
2018-03-16T11:40:17.572Z,13.01
2018-03-16T11:41:17.572Z,13.02
2018-03-16T11:42:17.573Z,13.20
2018-03-16T11:43:17.574Z,13.26
2018-03-16T11:44:17.578Z,13.39
2018-03-16T11:45:17.578Z,13.60
2018-03-16T11:46:17.578Z,13.87
2018-03-16T11:47:17.579Z,13.93
2018-03-16T11:48:17.580Z,14.23
2018-03-16T11:49:17.584Z,14.31
2018-03-16T11:50:17.585Z,14.43
2018-03-16T11:51:17.592Z,14.41
2018-03-16T11:52:17.591Z,14.61
2018-03-16T11:53:17.593Z,14.81
2018-03-16T11:54:17.595Z,14.81
2018-03-16T11:55:17.600Z,14.67
2018-03-16T11:56:17.805Z,14.52
2018-03-16T11:57:17.606Z,14.37
2018-03-16T11:58:17.608Z,14.16
2018-03-16T11:59:17.610Z,13.89
2018-03-16T12:00:17.613Z,13.76
2018-03-16T12:01:17.615Z,13.60
2018-03-16T12:02:17.618Z,13.30
2018-03-16T12:03:17.622Z,13.30
2018-03-16T12:04:17.623Z,13.33
2018-03-16T12:05:17.633Z,13.21
2018-03-16T12:06:17.626Z,13.11
2018-03-16T12:07:17.628Z,12.99
2018-03-16T12:08:17.630Z,13.05
2018-03-16T12:09:17.633Z,13.01
2018-03-16T12:10:17.935Z,13.03
2018-03-16T12:11:17.640Z,13.08
2018-03-16T12:12:17.636Z,13.06
2018-03-16T12:13:17.640Z,13.05
2018-03-16T12:14:17.640Z,13.06
2018-03-16T12:15:17.641Z,13.05
2018-03-16T12:16:17.644Z,13.11
2018-03-16T12:17:17.645Z,13.21
2018-03-16T12:18:17.674Z,13.13
2018-03-16T12:19:17.647Z,13.30
2018-03-16T12:20:17.648Z,13.17
2018-03-16T12:21:17.652Z,13.12
2018-03-16T12:22:17.651Z,12.87
2018-03-16T12:23:17.652Z,12.87
2018-03-16T12:24:17.677Z,12.62
2018-03-16T12:25:17.655Z,12.58
2018-03-16T12:26:17.656Z,12.57
2018-03-16T12:27:17.658Z,12.58
2018-03-16T12:28:17.658Z,12.54
2018-03-16T12:29:17.796Z,12.57
2018-03-16T12:30:17.658Z,12.55
2018-03-16T12:31:17.659Z,12.51
2018-03-16T12:32:17.662Z,12.48
2018-03-16T12:33:17.662Z,12.51
2018-03-16T12:34:17.664Z,12.61
2018-03-16T12:35:17.662Z,12.57
2018-03-16T12:36:17.670Z,12.62
2018-03-16T12:37:17.664Z,12.68
2018-03-16T12:38:17.666Z,12.68
2018-03-16T12:39:17.664Z,12.66
2018-03-16T12:40:17.665Z,12.57
2018-03-16T12:41:17.667Z,12.51
2018-03-16T12:42:17.667Z,12.53
2018-03-16T12:43:17.667Z,12.40
2018-03-16T12:44:17.666Z,12.43
2018-03-16T12:45:17.668Z,12.30
2018-03-16T12:46:17.668Z,12.36
2018-03-16T12:47:17.673Z,12.29
2018-03-16T12:48:17.667Z,12.32
2018-03-16T12:49:17.668Z,12.33
2018-03-16T12:50:17.667Z,12.37
2018-03-16T12:51:17.667Z,12.37
2018-03-16T12:52:17.668Z,12.33
2018-03-16T12:53:17.668Z,12.32
2018-03-16T12:54:17.669Z,12.20
2018-03-16T12:55:17.669Z,12.23
2018-03-16T12:56:17.670Z,12.25
2018-03-16T12:57:17.669Z,12.17
2018-03-16T12:58:17.668Z,12.17
2018-03-16T12:59:17.668Z,12.26
2018-03-16T13:00:17.673Z,12.26
2018-03-16T13:01:17.668Z,12.29
2018-03-16T13:02:17.669Z,12.43
2018-03-16T13:03:17.668Z,12.33
2018-03-16T13:04:17.668Z,12.43
2018-03-16T13:05:17.669Z,12.32
2018-03-16T13:06:17.668Z,12.32
2018-03-16T13:07:17.667Z,12.29